Time;durP1;ratioP1;P1;durP2;ratioP2;P2;SDS_P1;SDS_P2;PMS_P1;PMS_P2;Temp;Humidity;BMP_temperature;BMP_pressure;BME280_temperature;BME280_humidity;BME280_pressure;Samples;Min_cycle;Max_cycle;Signal;HPM_P1;HPM_P2
2022/05/30 00:00:06;;;;;;;1.20;0.80;;;24.60;49.60;;;;;;5008481;28;20203;-83
2022/05/30 00:02:33;;;;;;;0.93;0.80;;;24.60;49.60;;;;;;5012058;28;20185;-82
2022/05/30 00:05:00;;;;;;;1.03;0.80;;;24.60;49.60;;;;;;5012377;28;20416;-82
2022/05/30 00:07:25;;;;;;;1.13;0.80;;;24.60;49.60;;;;;;5012993;28;20522;-83
2022/05/30 00:09:51;;;;;;;1.20;0.90;;;24.60;49.60;;;;;;5011982;28;20439;-83
2022/05/30 00:12:17;;;;;;;1.73;1.20;;;24.60;49.60;;;;;;5044740;28;20177;-83
2022/05/30 00:14:45;;;;;;;2.93;0.97;;;24.60;49.60;;;;;;5044575;28;20208;-83
2022/05/30 00:17:11;;;;;;;1.10;0.90;;;24.50;49.50;;;;;;5015967;28;20423;-83
2022/05/30 00:19:38;;;;;;;1.40;1.10;;;24.50;49.50;;;;;;5032500;28;20418;-84
2022/05/30 00:22:05;;;;;;;1.10;1.00;;;24.50;49.50;;;;;;5032485;28;20433;-83
2022/05/30 00:24:32;;;;;;;4.10;0.80;;;24.50;49.50;;;;;;5032355;28;20430;-84
2022/05/30 00:26:57;;;;;;;1.10;0.80;;;24.50;49.50;;;;;;5064331;28;20420;-84
2022/05/30 00:29:24;;;;;;;1.10;0.80;;;24.50;49.60;;;;;;5047460;28;20434;-84
2022/05/30 00:31:50;;;;;;;1.07;0.77;;;24.50;49.60;;;;;;5014693;28;20185;-83
2022/05/30 00:34:20;;;;;;;1.90;0.80;;;24.50;49.60;;;;;;5011766;28;20471;-84
2022/05/30 00:36:45;;;;;;;1.30;0.77;;;24.50;49.60;;;;;;5028981;28;20443;-84
2022/05/30 00:39:11;;;;;;;1.50;0.90;;;24.50;49.60;;;;;;5030316;28;20538;-84
2022/05/30 00:41:37;;;;;;;1.10;0.70;;;24.50;49.60;;;;;;5031786;28;20177;-84
2022/05/30 00:44:04;;;;;;;1.30;0.80;;;24.50;49.60;;;;;;5063847;28;20441;-83
2022/05/30 00:46:30;;;;;;;1.27;0.80;;;24.50;49.60;;;;;;5030486;28;20296;-84
2022/05/30 00:49:02;;;;;;;1.70;0.90;;;24.50;49.60;;;;;;5064424;28;20420;-84
2022/05/30 00:51:51;;;;;;;1.10;0.80;;;24.50;49.60;;;;;;5064460;28;20184;-84
2022/05/30 00:54:35;;;;;;;1.03;0.83;;;24.50;49.70;;;;;;5031544;28;20454;-84
2022/05/30 00:57:20;;;;;;;1.00;0.80;;;24.50;49.70;;;;;;5030566;28;20478;-84
2022/05/30 00:59:57;;;;;;;1.40;0.80;;;24.50;49.70;;;;;;5030190;28;20407;-84
2022/05/30 01:02:26;;;;;;;1.00;0.70;;;24.50;49.70;;;;;;5028700;28;20402;-84
2022/05/30 01:07:41;;;;;;;1.13;0.77;;;24.50;49.70;;;;;;5008701;28;20450;-83
2022/05/30 01:10:11;;;;;;;1.03;0.70;;;24.50;49.80;;;;;;5009119;28;20420;-84
2022/05/30 01:12:41;;;;;;;1.07;0.80;;;24.50;49.70;;;;;;5024443;28;20451;-84
2022/05/30 01:15:11;;;;;;;2.80;1.00;;;24.50;49.70;;;;;;5027141;28;20527;-84
2022/05/30 01:17:48;;;;;;;1.50;0.80;;;24.50;49.70;;;;;;5023254;28;20514;-83
2022/05/30 01:20:31;;;;;;;0.90;0.70;;;24.50;49.70;;;;;;5008407;28;20396;-83
2022/05/30 01:23:21;;;;;;;1.20;0.90;;;24.50;49.70;;;;;;5027490;28;20579;-83
2022/05/30 01:25:56;;;;;;;1.10;0.80;;;24.50;49.70;;;;;;5028032;28;20423;-83
2022/05/30 01:28:22;;;;;;;1.20;0.80;;;24.50;49.70;;;;;;5027858;28;20430;-83
2022/05/30 01:30:49;;;;;;;1.17;0.77;;;24.50;49.70;;;;;;5027430;28;20407;-83
2022/05/30 01:33:16;;;;;;;1.20;0.80;;;24.50;49.70;;;;;;5026862;28;20181;-83
2022/05/30 01:35:42;;;;;;;1.53;0.80;;;24.50;49.70;;;;;;5042889;28;20420;-83
2022/05/30 01:38:49;;;;;;;1.33;0.80;;;24.50;49.70;;;;;;5022805;28;20432;-83
2022/05/30 01:41:15;;;;;;;1.30;0.90;;;24.50;49.70;;;;;;5010543;28;20423;-83
2022/05/30 01:43:40;;;;;;;1.00;0.70;;;24.50;49.80;;;;;;5024258;28;20427;-83
2022/05/30 01:46:09;;;;;;;1.30;0.70;;;24.50;49.80;;;;;;5025638;28;20172;-83
2022/05/30 01:48:35;;;;;;;1.20;0.90;;;24.50;49.80;;;;;;5020198;28;20231;-83
2022/05/30 01:51:02;;;;;;;1.40;0.80;;;24.50;49.80;;;;;;5024973;28;20443;-82
2022/05/30 01:53:28;;;;;;;1.20;0.83;;;24.40;49.70;;;;;;5024972;28;20184;-82
2022/05/30 01:55:55;;;;;;;1.00;0.80;;;24.50;49.80;;;;;;5024246;28;20414;-82
2022/05/30 01:58:21;;;;;;;1.10;0.80;;;24.40;49.70;;;;;;5051474;28;20439;-82
2022/05/30 02:00:48;;;;;;;1.00;0.90;;;24.50;49.80;;;;;;5022873;28;20489;-83
2022/05/30 02:03:14;;;;;;;1.10;0.70;;;24.50;49.80;;;;;;5024413;28;20416;-83
2022/05/30 02:05:40;;;;;;;1.57;1.03;;;24.50;49.80;;;;;;5019226;28;20523;-82
2022/05/30 02:08:07;;;;;;;1.37;0.80;;;24.40;49.70;;;;;;5016858;28;20462;-82
2022/05/30 02:10:33;;;;;;;1.20;0.77;;;24.40;49.70;;;;;;5023900;28;20450;-82
2022/05/30 02:12:59;;;;;;;1.20;0.70;;;24.50;49.80;;;;;;5023511;28;20910;-82
2022/05/30 02:15:25;;;;;;;1.33;0.80;;;24.40;49.70;;;;;;5024240;28;20447;-82
2022/05/30 02:17:52;;;;;;;2.17;0.83;;;24.40;49.70;;;;;;5018048;28;20449;-82
2022/05/30 02:20:18;;;;;;;1.13;0.80;;;24.50;49.80;;;;;;5056583;28;20194;-84
2022/05/30 02:22:45;;;;;;;1.10;0.70;;;24.50;49.80;;;;;;5022737;28;20443;-84
2022/05/30 02:25:12;;;;;;;1.10;0.83;;;24.40;49.70;;;;;;5023751;28;20423;-84
2022/05/30 02:27:39;;;;;;;1.17;0.80;;;24.50;49.80;;;;;;5024954;28;20420;-84
2022/05/30 02:30:05;;;;;;;1.13;0.90;;;24.50;49.80;;;;;;5055780;28;20435;-84
2022/05/30 02:32:31;;;;;;;0.90;0.70;;;24.50;49.80;;;;;;5023562;28;20922;-83
2022/05/30 02:37:41;;;;;;;1.73;0.70;;;24.50;49.80;;;;;;5025619;28;20303;-84
2022/05/30 02:40:08;;;;;;;1.80;0.90;;;24.50;49.80;;;;;;5024626;28;20427;-84
2022/05/30 02:42:34;;;;;;;1.00;0.80;;;24.50;49.80;;;;;;5025600;28;20183;-84
2022/05/30 02:45:00;;;;;;;1.07;0.80;;;24.50;49.80;;;;;;5023933;28;20415;-84
2022/05/30 02:47:26;;;;;;;1.00;0.70;;;24.50;49.80;;;;;;5023413;28;20188;-84
2022/05/30 02:49:51;;;;;;;2.50;1.10;;;24.50;49.80;;;;;;5024295;28;20198;-84
2022/05/30 02:52:17;;;;;;;1.20;0.80;;;24.50;49.80;;;;;;5023958;28;20200;-84
2022/05/30 02:55:18;;;;;;;1.20;0.87;;;24.40;49.70;;;;;;5023908;28;20200;-84
2022/05/30 02:57:49;;;;;;;1.00;0.80;;;24.50;49.80;;;;;;5023359;28;20200;-84
2022/05/30 03:00:15;;;;;;;1.07;0.70;;;24.40;49.70;;;;;;5022171;28;20399;-84
2022/05/30 03:03:03;;;;;;;1.13;0.90;;;24.40;49.80;;;;;;5023109;28;20449;-84
2022/05/30 03:05:30;;;;;;;1.00;0.80;;;24.40;49.70;;;;;;5022772;28;20200;-84
2022/05/30 03:07:56;;;;;;;1.43;0.77;;;24.40;49.80;;;;;;5024162;28;20434;-83
2022/05/30 03:10:22;;;;;;;1.17;0.70;;;24.40;49.80;;;;;;5018119;28;20408;-84
2022/05/30 03:13:07;;;;;;;1.70;0.90;;;24.40;49.80;;;;;;5021817;28;20488;-84
2022/05/30 03:15:33;;;;;;;1.47;0.87;;;24.40;49.80;;;;;;5018247;28;20556;-84
2022/05/30 03:18:01;;;;;;;1.10;0.80;;;24.40;49.80;;;;;;5021729;28;20435;-84
2022/05/30 03:20:27;;;;;;;1.00;0.70;;;24.40;49.80;;;;;;5014473;28;20430;-84
2022/05/30 03:22:53;;;;;;;1.80;1.00;;;24.40;49.80;;;;;;5025078;28;20435;-84
2022/05/30 03:25:19;;;;;;;1.47;0.87;;;24.40;49.80;;;;;;5024338;28;20335;-84
2022/05/30 03:27:45;;;;;;;1.17;1.00;;;24.40;49.90;;;;;;5024432;28;20194;-83
2022/05/30 03:30:12;;;;;;;1.00;0.70;;;24.40;49.80;;;;;;5023763;28;20517;-84
2022/05/30 03:32:38;;;;;;;1.00;0.80;;;24.40;49.80;;;;;;5025382;28;20524;-84
2022/05/30 03:35:04;;;;;;;1.00;0.80;;;24.40;49.80;;;;;;5026669;28;20558;-83
2022/05/30 03:37:31;;;;;;;1.10;0.80;;;24.40;49.80;;;;;;5030788;28;20419;-83
2022/05/30 03:39:57;;;;;;;0.90;0.70;;;24.40;49.80;;;;;;5062392;28;20454;-83
2022/05/30 03:42:23;;;;;;;1.40;1.10;;;24.40;49.80;;;;;;5030871;28;20443;-83
2022/05/30 03:48:14;;;;;;;1.03;0.70;;;24.40;49.80;;;;;;5024809;28;20183;-83
2022/05/30 03:50:41;;;;;;;2.63;0.87;;;24.40;49.80;;;;;;5030518;28;20451;-84
2022/05/30 03:53:09;;;;;;;0.90;0.70;;;24.40;49.80;;;;;;5032063;28;20423;-83
2022/05/30 03:55:40;;;;;;;1.20;0.80;;;24.40;49.80;;;;;;5030483;28;20458;-84
2022/05/30 03:58:09;;;;;;;0.93;0.60;;;24.40;49.80;;;;;;5038613;28;20430;-85
2022/05/30 04:00:36;;;;;;;0.80;0.70;;;24.40;49.80;;;;;;5028189;28;20506;-85
2022/05/30 04:03:05;;;;;;;0.90;0.70;;;24.50;49.90;;;;;;5018758;28;20423;-85
2022/05/30 04:05:31;;;;;;;1.10;0.83;;;24.50;49.90;;;;;;5032086;28;20455;-85
2022/05/30 04:07:57;;;;;;;1.07;0.70;;;24.50;49.80;;;;;;5032246;28;20423;-85
2022/05/30 04:10:24;;;;;;;1.00;0.70;;;24.50;49.80;;;;;;5031535;28;20215;-85
2022/05/30 04:12:51;;;;;;;1.27;0.83;;;24.50;49.80;;;;;;5031193;28;20427;-84
2022/05/30 04:15:22;;;;;;;1.10;0.77;;;24.50;49.80;;;;;;5029376;28;20458;-84
2022/05/30 04:17:48;;;;;;;1.27;0.87;;;24.50;49.80;;;;;;5025276;28;20431;-85
2022/05/30 04:20:17;;;;;;;1.10;0.70;;;24.50;49.80;;;;;;5022248;28;20427;-84
2022/05/30 04:22:46;;;;;;;1.33;0.90;;;24.50;49.80;;;;;;5049798;28;20431;-85
2022/05/30 04:25:12;;;;;;;1.07;0.70;;;24.50;49.80;;;;;;5046896;28;20994;-85
2022/05/30 04:27:38;;;;;;;1.00;0.80;;;24.50;49.80;;;;;;5030756;28;20446;-84
2022/05/30 04:30:06;;;;;;;1.07;0.80;;;24.50;49.80;;;;;;5034366;28;20427;-85
2022/05/30 04:32:34;;;;;;;1.00;0.83;;;24.50;49.80;;;;;;5029408;28;20432;-85
2022/05/30 04:34:59;;;;;;;1.97;0.90;;;24.50;49.80;;;;;;5056424;28;20477;-84
2022/05/30 04:37:27;;;;;;;1.47;0.90;;;24.50;49.80;;;;;;5026522;28;20446;-85
2022/05/30 04:39:54;;;;;;;1.30;0.90;;;24.50;49.70;;;;;;5023885;28;20408;-85
2022/05/30 04:42:20;;;;;;;1.13;0.80;;;24.50;49.70;;;;;;5029951;28;20430;-85
2022/05/30 04:48:55;;;;;;;0.97;0.80;;;24.50;49.70;;;;;;5026929;28;20386;-85
2022/05/30 04:51:20;;;;;;;1.30;0.80;;;24.50;49.80;;;;;;5049602;28;20461;-85
2022/05/30 04:53:46;;;;;;;1.30;0.80;;;24.50;49.80;;;;;;5025778;28;20455;-85
2022/05/30 04:56:13;;;;;;;1.10;0.90;;;24.50;49.80;;;;;;5026814;28;20188;-86
2022/05/30 04:58:44;;;;;;;1.20;0.90;;;24.50;49.80;;;;;;5020338;28;20428;-85
2022/05/30 05:01:13;;;;;;;1.00;0.80;;;24.50;50.40;;;;;;5024782;28;20427;-85
2022/05/30 05:03:41;;;;;;;1.00;0.70;;;24.50;49.80;;;;;;5025984;28;20431;-85
2022/05/30 05:06:19;;;;;;;1.50;1.00;;;24.50;49.80;;;;;;5023398;28;20470;-86
2022/05/30 05:08:51;;;;;;;1.50;1.00;;;24.60;49.90;;;;;;5030244;28;20435;-85
2022/05/30 05:11:26;;;;;;;1.20;0.90;;;24.50;49.80;;;;;;5057712;28;20475;-85
2022/05/30 05:13:52;;;;;;;1.10;0.73;;;24.50;49.80;;;;;;5028452;28;20489;-85
2022/05/30 05:16:23;;;;;;;1.17;0.77;;;24.50;49.80;;;;;;5029969;28;20455;-83
2022/05/30 05:18:50;;;;;;;1.10;0.73;;;24.50;49.80;;;;;;5031434;28;20407;-86
2022/05/30 05:21:20;;;;;;;1.10;0.80;;;24.50;49.80;;;;;;5031174;28;20482;-83
2022/05/30 05:23:47;;;;;;;1.97;0.97;;;24.50;49.80;;;;;;5031275;28;20443;-84
2022/05/30 05:26:15;;;;;;;1.50;0.83;;;24.50;49.80;;;;;;5030080;28;20486;-83
2022/05/30 05:28:41;;;;;;;1.07;0.80;;;24.60;49.80;;;;;;5031908;28;20439;-83
2022/05/30 05:31:08;;;;;;;1.20;0.93;;;24.60;49.80;;;;;;5030449;28;20430;-83
2022/05/30 05:33:34;;;;;;;1.67;0.80;;;24.60;49.80;;;;;;5031062;28;20481;-83
2022/05/30 05:39:23;;;;;;;1.30;0.90;;;24.60;49.80;;;;;;5028672;28;20379;-83
2022/05/30 05:41:49;;;;;;;0.97;0.77;;;24.50;49.80;;;;;;5029631;28;20479;-83
2022/05/30 05:44:16;;;;;;;0.90;0.70;;;24.50;49.80;;;;;;5016946;28;20419;-83
2022/05/30 05:46:44;;;;;;;2.00;1.13;;;24.60;49.90;;;;;;5023783;28;20416;-84
2022/05/30 05:49:10;;;;;;;1.13;0.80;;;24.60;49.90;;;;;;5023723;28;20480;-83
2022/05/30 05:51:37;;;;;;;0.97;0.80;;;24.60;49.90;;;;;;5043107;28;20424;-84
2022/05/30 05:54:03;;;;;;;1.17;0.90;;;24.60;49.90;;;;;;5028530;28;20230;-84
2022/05/30 05:56:30;;;;;;;1.20;0.80;;;24.60;49.90;;;;;;5043500;28;20408;-84
2022/05/30 05:58:56;;;;;;;1.10;1.00;;;24.60;49.90;;;;;;5040208;28;20425;-83
2022/05/30 06:01:28;;;;;;;1.30;0.80;;;24.60;49.90;;;;;;5019568;28;20420;-82
2022/05/30 06:03:57;;;;;;;1.33;1.10;;;24.60;49.90;;;;;;5026492;28;20502;-82
2022/05/30 06:06:23;;;;;;;2.03;0.90;;;24.60;49.80;;;;;;5025976;28;20487;-82
2022/05/30 06:08:53;;;;;;;1.00;0.90;;;24.60;49.80;;;;;;5017401;28;20458;-83
2022/05/30 06:11:21;;;;;;;0.90;0.80;;;24.60;49.90;;;;;;5025826;28;20399;-82
2022/05/30 06:13:48;;;;;;;0.90;0.70;;;24.60;49.80;;;;;;5024937;28;20478;-82
2022/05/30 06:16:23;;;;;;;0.90;0.70;;;24.60;49.90;;;;;;5025904;28;20434;-82
2022/05/30 06:18:51;;;;;;;1.10;1.00;;;24.60;49.80;;;;;;5038958;28;20419;-82
2022/05/30 06:21:17;;;;;;;1.10;0.80;;;24.60;49.80;;;;;;5024394;28;20419;-82
2022/05/30 06:23:46;;;;;;;1.10;0.90;;;24.60;49.80;;;;;;5058097;28;20423;-82
2022/05/30 06:26:13;;;;;;;1.20;0.90;;;24.60;49.80;;;;;;5025049;28;20423;-82
2022/05/30 06:28:40;;;;;;;1.10;0.80;;;24.60;49.80;;;;;;5025911;28;20486;-82
2022/05/30 06:31:12;;;;;;;1.00;0.60;;;24.60;49.80;;;;;;5025726;28;20462;-82
2022/05/30 06:33:38;;;;;;;1.30;0.97;;;24.60;49.80;;;;;;5018150;28;20439;-82
2022/05/30 06:36:07;;;;;;;1.10;0.90;;;24.60;49.80;;;;;;5020842;28;20790;-82
2022/05/30 06:38:33;;;;;;;1.10;0.90;;;24.60;49.80;;;;;;5025044;28;20419;-82
2022/05/30 06:41:15;;;;;;;1.07;0.80;;;24.60;49.80;;;;;;5024262;28;20416;-82
2022/05/30 06:43:41;;;;;;;1.43;0.70;;;24.60;49.80;;;;;;5024180;28;20443;-82
2022/05/30 06:46:13;;;;;;;2.37;0.90;;;24.60;49.80;;;;;;5023836;28;20893;-82
2022/05/30 06:48:39;;;;;;;1.40;0.80;;;24.60;49.80;;;;;;5022458;28;20442;-82
2022/05/30 06:51:09;;;;;;;1.10;0.90;;;24.60;49.80;;;;;;5030458;28;20419;-83
2022/05/30 06:53:35;;;;;;;1.53;1.43;;;24.60;49.90;;;;;;5018734;28;20176;-82
2022/05/30 06:56:01;;;;;;;1.10;0.80;;;24.60;49.90;;;;;;5024249;28;20435;-84
2022/05/30 06:58:28;;;;;;;1.33;0.70;;;24.60;49.80;;;;;;5023121;28;20415;-82
2022/05/30 07:00:59;;;;;;;0.90;0.80;;;24.60;49.80;;;;;;5025063;28;20228;-82
2022/05/30 07:03:26;;;;;;;1.20;0.90;;;24.60;49.80;;;;;;5022291;28;20434;-82
2022/05/30 07:05:51;;;;;;;1.17;0.87;;;24.60;49.80;;;;;;5024049;28;20426;-83
2022/05/30 07:11:50;;;;;;;1.90;1.00;;;24.60;49.80;;;;;;5020915;28;20230;-83
2022/05/30 07:14:16;;;;;;;1.37;0.93;;;24.60;49.90;;;;;;5025115;28;20453;-84
2022/05/30 07:16:43;;;;;;;1.10;0.90;;;24.60;49.90;;;;;;5028914;28;20426;-83
2022/05/30 07:19:10;;;;;;;1.07;0.80;;;24.60;49.90;;;;;;5023128;28;20419;-83
2022/05/30 07:21:41;;;;;;;1.00;0.73;;;24.60;49.90;;;;;;5024335;28;20423;-83
2022/05/30 07:24:10;;;;;;;0.87;0.70;;;24.60;49.90;;;;;;5027673;28;20446;-84
2022/05/30 07:26:38;;;;;;;1.03;0.83;;;24.60;49.90;;;;;;5028636;28;20411;-84
2022/05/30 07:29:04;;;;;;;1.37;0.90;;;24.60;49.90;;;;;;5026154;28;20505;-83
2022/05/30 07:31:30;;;;;;;1.20;0.97;;;24.60;49.90;;;;;;5043239;28;20411;-84
2022/05/30 07:33:57;;;;;;;1.93;0.80;;;24.70;50.00;;;;;;5026747;28;20481;-82
2022/05/30 07:36:36;;;;;;;1.10;0.80;;;24.70;50.00;;;;;;5024189;28;20231;-83
2022/05/30 07:39:03;;;;;;;0.90;0.80;;;24.70;50.00;;;;;;5023261;28;20488;-83
2022/05/30 07:41:30;;;;;;;1.27;0.90;;;24.70;50.00;;;;;;5026701;28;20838;-84
2022/05/30 07:43:56;;;;;;;1.00;0.80;;;24.60;49.90;;;;;;5027419;28;20419;-83
2022/05/30 07:50:29;;;;;;;1.67;0.70;;;24.60;49.90;;;;;;5022185;28;20379;-83
2022/05/30 07:52:54;;;;;;;1.30;1.10;;;24.60;49.90;;;;;;5055774;28;20434;-83
2022/05/30 07:55:38;;;;;;;1.10;0.73;;;24.60;50.50;;;;;;5024487;28;20454;-83
2022/05/30 07:58:08;;;;;;;1.40;1.00;;;24.60;50.00;;;;;;5028570;28;20638;-83
2022/05/30 08:00:35;;;;;;;1.20;0.87;;;24.60;50.00;;;;;;5024680;28;20812;-82
2022/05/30 08:03:03;;;;;;;0.90;0.70;;;24.60;50.00;;;;;;5025955;28;20415;-83
2022/05/30 08:05:28;;;;;;;1.50;0.90;;;24.60;50.00;;;;;;5024478;28;20479;-83
2022/05/30 08:08:01;;;;;;;1.00;0.80;;;24.60;50.00;;;;;;5026618;28;20458;-83
2022/05/30 08:10:27;;;;;;;1.20;0.80;;;24.60;50.00;;;;;;5026455;28;20206;-83
2022/05/30 08:12:53;;;;;;;1.00;0.70;;;24.60;50.00;;;;;;5025288;28;20443;-86
2022/05/30 08:15:19;;;;;;;1.03;0.90;;;24.60;50.00;;;;;;5023502;28;20195;-86
2022/05/30 08:17:45;;;;;;;1.20;1.00;;;24.60;50.00;;;;;;5025496;28;20255;-86
2022/05/30 08:20:17;;;;;;;3.30;0.90;;;24.60;50.00;;;;;;5023597;28;20461;-86
2022/05/30 08:22:43;;;;;;;1.50;0.90;;;24.70;50.00;;;;;;5017955;28;20188;-86
2022/05/30 08:25:15;;;;;;;1.10;0.80;;;24.60;50.00;;;;;;5037968;28;20506;-86
2022/05/30 08:27:45;;;;;;;1.00;0.80;;;24.70;50.00;;;;;;5025106;28;20176;-86
2022/05/30 08:30:15;;;;;;;1.23;0.83;;;24.60;50.00;;;;;;5024086;28;20427;-87
2022/05/30 08:32:43;;;;;;;1.23;0.87;;;24.60;50.00;;;;;;5022732;28;20429;-86
2022/05/30 08:35:16;;;;;;;0.90;0.80;;;24.60;50.00;;;;;;5022640;28;20509;-85
2022/05/30 08:37:43;;;;;;;1.97;0.80;;;24.60;50.00;;;;;;5024088;28;20494;-86
2022/05/30 08:43:10;;;;;;;0.90;0.70;;;24.60;50.00;;;;;;5022813;28;20466;-86
2022/05/30 08:45:38;;;;;;;1.00;0.70;;;24.60;50.00;;;;;;5023019;28;20408;-86
2022/05/30 08:48:11;;;;;;;1.67;0.70;;;24.60;50.00;;;;;;5036313;28;20918;-86
2022/05/30 08:50:58;;;;;;;1.00;0.70;;;24.60;50.00;;;;;;5017303;28;20423;-86
2022/05/30 08:53:48;;;;;;;1.00;0.80;;;24.70;50.10;;;;;;5026285;28;20491;-86
2022/05/30 08:56:14;;;;;;;0.90;0.70;;;24.70;50.10;;;;;;5024839;28;20427;-86
2022/05/30 08:59:25;;;;;;;1.00;0.70;;;24.60;50.10;;;;;;5026510;28;20407;-86
2022/05/30 09:02:17;;;;;;;0.80;0.60;;;24.70;50.10;;;;;;5026353;28;20184;-86
2022/05/30 09:04:58;;;;;;;1.90;0.80;;;24.60;50.10;;;;;;5025441;28;20414;-85
2022/05/30 09:07:31;;;;;;;2.07;0.80;;;24.60;50.10;;;;;;5021869;28;20439;-85
2022/05/30 09:10:13;;;;;;;1.07;0.90;;;24.60;50.10;;;;;;5009383;28;20412;-85
2022/05/30 09:12:55;;;;;;;0.90;0.70;;;24.70;50.10;;;;;;5026085;28;20434;-85
2022/05/30 09:15:34;;;;;;;0.97;0.80;;;24.70;50.20;;;;;;5058938;28;20481;-85
2022/05/30 09:18:00;;;;;;;1.40;0.90;;;24.70;50.10;;;;;;5024258;28;20400;-84
2022/05/30 09:20:27;;;;;;;1.20;0.77;;;24.70;50.10;;;;;;5035634;28;20462;-84
2022/05/30 09:22:54;;;;;;;0.80;0.60;;;24.70;50.10;;;;;;5025942;28;20222;-86
2022/05/30 09:28:10;;;;;;;1.00;0.80;;;24.70;50.10;;;;;;5026115;28;20426;-84
2022/05/30 09:30:56;;;;;;;1.20;0.87;;;24.70;50.10;;;;;;5025441;28;20491;-84
2022/05/30 09:33:27;;;;;;;1.10;0.80;;;24.70;50.10;;;;;;5023816;28;20215;-85
2022/05/30 09:36:30;;;;;;;1.27;0.77;;;24.70;50.10;;;;;;5039988;28;20462;-85
2022/05/30 09:39:00;;;;;;;1.10;0.83;;;24.70;50.10;;;;;;4988956;28;20412;-85
2022/05/30 09:41:30;;;;;;;0.90;0.60;;;24.60;50.10;;;;;;5006663;28;20420;-86
2022/05/30 09:43:58;;;;;;;0.90;0.70;;;24.60;50.10;;;;;;5014774;28;20435;-85
2022/05/30 09:46:34;;;;;;;1.10;0.70;;;24.60;50.10;;;;;;5023240;28;20438;-86
2022/05/30 09:49:02;;;;;;;1.20;0.87;;;24.60;50.10;;;;;;5007368;28;20975;-85
2022/05/30 09:51:36;;;;;;;0.90;0.70;;;24.60;50.10;;;;;;5022528;28;20796;-85
2022/05/30 09:54:02;;;;;;;1.30;1.03;;;24.60;50.10;;;;;;5004030;28;20457;-86
2022/05/30 09:56:33;;;;;;;1.00;0.70;;;24.60;50.10;;;;;;5003738;28;20480;-87
2022/05/30 09:59:13;;;;;;;0.90;0.70;;;24.60;50.10;;;;;;4987082;28;20479;-86
2022/05/30 10:01:40;;;;;;;1.10;0.70;;;24.60;50.10;;;;;;5003615;28;20407;-85
2022/05/30 10:04:20;;;;;;;1.00;0.70;;;24.60;50.10;;;;;;4986657;28;20420;-87
2022/05/30 10:07:06;;;;;;;1.10;0.70;;;24.60;50.10;;;;;;5003474;28;20404;-86
2022/05/30 10:09:34;;;;;;;1.20;0.90;;;24.70;50.20;;;;;;5003758;28;20424;-85
2022/05/30 10:12:00;;;;;;;1.20;0.80;;;24.60;50.10;;;;;;5021183;28;20419;-85
2022/05/30 10:14:29;;;;;;;1.10;0.80;;;24.70;50.20;;;;;;5022225;28;20471;-87
2022/05/30 10:17:08;;;;;;;1.10;0.70;;;24.70;50.20;;;;;;5037437;28;20428;-85
2022/05/30 10:19:34;;;;;;;1.30;0.70;;;24.70;50.20;;;;;;5056948;28;20509;-86
2022/05/30 10:28:16;;;;;;;1.50;0.80;;;24.70;50.20;;;;;;5015773;28;20426;-87
2022/05/30 10:30:56;;;;;;;1.30;0.90;;;24.60;50.20;;;;;;5017714;28;20464;-86
2022/05/30 10:33:48;;;;;;;1.23;0.80;;;24.60;50.20;;;;;;5004722;28;20874;-86
2022/05/30 10:36:24;;;;;;;2.40;0.90;;;24.70;50.30;;;;;;5020284;28;20490;-86
2022/05/30 10:39:14;;;;;;;1.10;0.70;;;24.70;50.30;;;;;;5019525;28;20430;-86
2022/05/30 10:41:55;;;;;;;1.37;0.77;;;24.70;50.30;;;;;;5006635;28;20396;-86
2022/05/30 10:44:30;;;;;;;1.07;0.80;;;24.70;50.20;;;;;;5024252;28;20382;-86
2022/05/30 10:47:02;;;;;;;1.60;1.00;;;24.70;50.30;;;;;;5025993;28;20410;-86
2022/05/30 10:49:35;;;;;;;2.50;1.50;;;24.70;50.20;;;;;;5044928;28;20414;-86
2022/05/30 10:52:06;;;;;;;5.17;2.50;;;24.70;50.20;;;;;;5019523;28;20456;-86
2022/05/30 10:54:38;;;;;;;7.10;4.50;;;24.70;50.20;;;;;;5019610;28;20847;-86
2022/05/30 10:57:23;;;;;;;14.10;6.50;;;24.70;50.20;;;;;;5020247;28;20408;-86
2022/05/30 10:59:57;;;;;;;20.17;8.40;;;24.70;50.20;;;;;;5004316;28;20404;-87
2022/05/30 11:05:45;;;;;;;18.97;7.47;;;24.70;50.20;;;;;;5005988;28;21203;-86
2022/05/30 11:08:39;;;;;;;19.77;7.70;;;24.70;50.20;;;;;;5039418;28;20411;-86
2022/05/30 11:11:31;;;;;;;11.20;7.20;;;24.70;50.20;;;;;;5024341;28;20404;-87
2022/05/30 11:14:23;;;;;;;17.90;6.73;;;24.70;50.30;;;;;;4996694;28;20463;-86
2022/05/30 11:17:19;;;;;;;15.13;6.70;;;24.70;50.30;;;;;;5011517;28;20426;-86
2022/05/30 11:20:07;;;;;;;19.77;7.47;;;24.70;50.30;;;;;;5057386;28;20406;-86
2022/05/30 11:26:33;;;;;;;20.57;8.07;;;24.70;50.30;;;;;;5018846;28;20391;-86
2022/05/30 11:29:03;;;;;;;17.60;7.50;;;24.60;50.30;;;;;;5033573;28;20585;-86
2022/05/30 11:31:48;;;;;;;17.53;7.57;;;24.60;50.30;;;;;;5032939;28;20420;-86
2022/05/30 11:34:38;;;;;;;18.53;8.03;;;24.70;50.40;;;;;;5016028;28;20462;-86
2022/05/30 11:37:33;;;;;;;19.80;8.13;;;24.70;50.40;;;;;;5034444;28;20777;-86
2022/05/30 11:40:32;;;;;;;16.97;7.17;;;24.70;50.40;;;;;;5018051;28;20415;-86
2022/05/30 11:43:16;;;;;;;17.90;8.00;;;24.70;50.40;;;;;;5017609;28;20936;-87
2022/05/30 11:46:15;;;;;;;16.13;7.60;;;24.70;50.40;;;;;;5024650;28;20415;-86
2022/05/30 11:48:57;;;;;;;17.13;8.60;;;24.70;50.40;;;;;;5018751;28;20486;-86
2022/05/30 11:51:32;;;;;;;14.53;7.73;;;24.70;50.40;;;;;;5010315;28;20412;-87
2022/05/30 11:54:35;;;;;;;17.23;8.03;;;24.70;50.40;;;;;;5014612;28;20462;-87
2022/05/30 11:57:24;;;;;;;18.33;7.80;;;24.70;50.40;;;;;;5021518;28;20415;-87
2022/05/30 11:59:52;;;;;;;18.87;8.60;;;24.70;50.40;;;;;;5025238;28;20422;-86
2022/05/30 12:03:02;;;;;;;15.50;7.70;;;24.70;50.40;;;;;;5037386;28;20426;-86
2022/05/30 12:05:56;;;;;;;15.13;7.30;;;24.70;50.50;;;;;;5011202;28;21048;-87
2022/05/30 12:09:00;;;;;;;13.43;7.00;;;24.60;50.40;;;;;;5018772;28;20414;-86
2022/05/30 12:11:53;;;;;;;15.13;7.70;;;24.70;50.50;;;;;;5037333;28;20408;-88
2022/05/30 12:14:46;;;;;;;16.50;8.53;;;24.60;50.40;;;;;;5054715;28;20459;-87
2022/05/30 12:23:47;;;;;;;18.97;8.10;;;24.60;50.40;;;;;;5058523;28;20423;-86
2022/05/30 12:23:48;;;;;;;15.80;7.30;;;24.60;50.40;;;;;;5008206;28;20440;-88
2022/05/30 12:26:14;;;;;;;19.70;8.17;;;24.60;50.50;;;;;;5026993;28;20423;-87
2022/05/30 12:28:40;;;;;;;19.27;8.60;;;24.60;50.40;;;;;;5026078;28;20420;-87
2022/05/30 12:31:07;;;;;;;14.73;7.00;;;24.60;50.40;;;;;;5053222;28;20480;-87
2022/05/30 12:33:36;;;;;;;16.10;8.33;;;24.70;50.50;;;;;;5020018;28;20284;-86
2022/05/30 12:36:17;;;;;;;20.40;8.47;;;24.70;50.50;;;;;;5026156;28;20430;-86
2022/05/30 12:38:57;;;;;;;11.67;7.73;;;24.70;50.40;;;;;;5036281;28;20792;-86
2022/05/30 12:41:58;;;;;;;19.93;8.80;;;24.70;50.50;;;;;;5016977;28;20419;-85
2022/05/30 12:44:45;;;;;;;14.10;7.90;;;24.70;50.50;;;;;;5024132;28;20426;-86
2022/05/30 12:47:17;;;;;;;24.63;8.73;;;24.70;50.50;;;;;;5012907;28;20424;-86
2022/05/30 12:49:48;;;;;;;16.10;7.23;;;24.70;50.60;;;;;;5019315;28;20440;-86
2022/05/30 12:52:17;;;;;;;16.57;6.50;;;24.70;50.60;;;;;;5026417;28;20944;-86
2022/05/30 12:54:58;;;;;;;14.27;7.70;;;24.70;50.60;;;;;;5026678;28;20535;-86
2022/05/30 12:57:44;;;;;;;15.57;7.60;;;24.70;50.60;;;;;;5032506;28;20409;-86
2022/05/30 13:00:16;;;;;;;12.30;7.40;;;24.70;50.60;;;;;;5012494;28;20421;-85
2022/05/30 13:03:03;;;;;;;15.13;6.23;;;24.70;50.60;;;;;;5025040;28;20422;-84
2022/05/30 13:05:38;;;;;;;12.80;5.90;;;24.70;50.60;;;;;;5018631;28;20534;-86
2022/05/30 13:08:42;;;;;;;16.10;7.53;;;24.60;50.50;;;;;;5057758;28;20454;-85
2022/05/30 13:11:11;;;;;;;16.83;7.30;;;24.60;50.50;;;;;;5058113;28;20439;-84
2022/05/30 13:13:41;;;;;;;13.53;7.20;;;24.60;50.50;;;;;;5026790;28;20573;-84
2022/05/30 13:16:18;;;;;;;11.00;5.97;;;24.60;50.50;;;;;;5025936;28;20441;-83
2022/05/30 13:18:45;;;;;;;13.77;7.57;;;24.60;50.60;;;;;;5041533;28;20431;-83
2022/05/30 13:21:12;;;;;;;18.20;7.47;;;24.60;50.60;;;;;;5026716;28;20423;-83
2022/05/30 13:23:38;;;;;;;18.93;9.10;;;24.60;50.60;;;;;;5026645;28;20470;-83
2022/05/30 13:26:17;;;;;;;15.40;7.30;;;24.60;50.60;;;;;;5026287;28;20427;-83
2022/05/30 13:28:45;;;;;;;13.20;8.13;;;24.60;50.60;;;;;;5027538;28;20783;-83
2022/05/30 13:31:13;;;;;;;14.73;7.07;;;24.60;50.60;;;;;;5040719;28;20438;-83
2022/05/30 13:33:53;;;;;;;14.30;7.77;;;24.60;50.60;;;;;;5059691;28;20431;-83
2022/05/30 13:36:20;;;;;;;11.13;6.03;;;24.60;50.60;;;;;;5006391;28;20452;-82
2022/05/30 13:38:49;;;;;;;13.87;7.03;;;24.60;50.60;;;;;;5015740;28;20434;-84
2022/05/30 13:44:39;;;;;;;15.07;6.77;;;24.60;50.70;;;;;;5027600;28;20426;-85
2022/05/30 13:47:09;;;;;;;15.10;8.00;;;24.60;50.70;;;;;;5026273;28;20415;-85
2022/05/30 13:49:44;;;;;;;16.73;6.73;;;24.60;50.70;;;;;;5025826;28;20418;-85
2022/05/30 13:52:20;;;;;;;13.87;6.53;;;24.60;50.70;;;;;;5026725;28;20403;-85
2022/05/30 13:54:53;;;;;;;12.83;6.63;;;24.60;50.70;;;;;;5027958;28;20451;-85
2022/05/30 13:57:19;;;;;;;14.93;6.30;;;24.60;50.70;;;;;;5026733;28;20408;-87
2022/05/30 13:59:53;;;;;;;14.53;7.50;;;24.60;50.70;;;;;;5026877;28;20741;-84